METAR Data
IDs: Format: Raw Decoded Include TAF

Data at: 2308 UTC 29 May 2020

METAR for:KAXA (Algona Muni, IA, US)
Text:KAXA 292255Z AUTO 35012G19KT 10SM CLR 21/06 A3013 RMK A01
Temperature: 21.0°C ( 70°F)
Dewpoint: 6.0°C ( 43°F) [RH = 38%]
Pressure (altimeter):30.13 inches Hg (1020.4 mb)
Winds:from the N (350 degrees) at 14 MPH (12 knots; 6.2 m/s) gusting to 22 MPH (19 knots; 9.8 m/s)
Visibility:10 or more sm (16+ km)
Ceiling:at least 12,000 feet AGL
Clouds:sky clear below 12,000 feet AGL
QC Flag:automated observation with no human augmentation